sensor_id;sensor_type;location;lat;lon;timestamp;P1;durP1;ratioP1;P2;durP2;ratioP2
13457;SDS011;6801;53.018;11.560;2023-05-16T00:00:16;12.02;;;5.55;;
13457;SDS011;6801;53.018;11.560;2023-05-16T00:02:44;8.70;;;4.78;;
13457;SDS011;6801;53.018;11.560;2023-05-16T00:05:11;5.72;;;4.07;;
13457;SDS011;6801;53.018;11.560;2023-05-16T00:07:40;7.60;;;4.97;;
13457;SDS011;6801;53.018;11.560;2023-05-16T00:10:08;10.43;;;5.90;;
13457;SDS011;6801;53.018;11.560;2023-05-16T00:12:36;7.05;;;5.63;;
13457;SDS011;6801;53.018;11.560;2023-05-16T00:15:04;9.23;;;5.70;;
13457;SDS011;6801;53.018;11.560;2023-05-16T00:17:32;7.55;;;4.72;;
13457;SDS011;6801;53.018;11.560;2023-05-16T00:19:59;7.43;;;4.75;;
13457;SDS011;6801;53.018;11.560;2023-05-16T00:22:26;11.23;;;5.35;;
13457;SDS011;6801;53.018;11.560;2023-05-16T00:24:55;9.07;;;5.65;;
13457;SDS011;6801;53.018;11.560;2023-05-16T00:27:22;10.45;;;5.07;;
13457;SDS011;6801;53.018;11.560;2023-05-16T00:29:48;7.40;;;4.35;;
13457;SDS011;6801;53.018;11.560;2023-05-16T00:32:16;11.30;;;6.57;;
13457;SDS011;6801;53.018;11.560;2023-05-16T00:34:43;11.63;;;5.63;;
13457;SDS011;6801;53.018;11.560;2023-05-16T00:37:10;10.05;;;6.70;;
13457;SDS011;6801;53.018;11.560;2023-05-16T00:39:38;9.10;;;5.45;;
13457;SDS011;6801;53.018;11.560;2023-05-16T00:42:06;8.52;;;6.47;;
13457;SDS011;6801;53.018;11.560;2023-05-16T00:44:33;13.27;;;6.47;;
13457;SDS011;6801;53.018;11.560;2023-05-16T00:47:00;9.90;;;5.97;;
13457;SDS011;6801;53.018;11.560;2023-05-16T00:49:28;11.80;;;6.13;;
13457;SDS011;6801;53.018;11.560;2023-05-16T00:51:55;13.90;;;9.05;;
13457;SDS011;6801;53.018;11.560;2023-05-16T00:54:23;11.30;;;7.03;;
13457;SDS011;6801;53.018;11.560;2023-05-16T00:56:53;9.02;;;5.47;;
13457;SDS011;6801;53.018;11.560;2023-05-16T00:59:22;6.95;;;5.30;;
13457;SDS011;6801;53.018;11.560;2023-05-16T01:01:49;5.88;;;3.72;;
13457;SDS011;6801;53.018;11.560;2023-05-16T01:04:17;10.77;;;6.35;;
13457;SDS011;6801;53.018;11.560;2023-05-16T01:06:44;14.63;;;7.38;;
13457;SDS011;6801;53.018;11.560;2023-05-16T01:09:11;11.73;;;6.43;;
13457;SDS011;6801;53.018;11.560;2023-05-16T01:11:41;12.60;;;6.93;;
13457;SDS011;6801;53.018;11.560;2023-05-16T01:14:24;9.75;;;5.97;;
13457;SDS011;6801;53.018;11.560;2023-05-16T01:17:04;7.13;;;5.43;;
13457;SDS011;6801;53.018;11.560;2023-05-16T01:19:46;10.23;;;7.15;;
13457;SDS011;6801;53.018;11.560;2023-05-16T01:22:27;8.80;;;5.55;;
13457;SDS011;6801;53.018;11.560;2023-05-16T01:27:43;11.55;;;6.28;;
13457;SDS011;6801;53.018;11.560;2023-05-16T01:30:15;8.55;;;5.30;;
13457;SDS011;6801;53.018;11.560;2023-05-16T01:32:43;9.90;;;5.38;;
13457;SDS011;6801;53.018;11.560;2023-05-16T01:35:11;8.57;;;4.97;;
13457;SDS011;6801;53.018;11.560;2023-05-16T01:40:11;7.50;;;6.07;;
13457;SDS011;6801;53.018;11.560;2023-05-16T01:42:46;9.98;;;7.28;;
13457;SDS011;6801;53.018;11.560;2023-05-16T01:45:17;11.80;;;7.65;;
13457;SDS011;6801;53.018;11.560;2023-05-16T01:47:50;6.93;;;5.20;;
13457;SDS011;6801;53.018;11.560;2023-05-16T01:50:23;9.65;;;6.78;;
13457;SDS011;6801;53.018;11.560;2023-05-16T01:52:54;11.43;;;7.88;;
13457;SDS011;6801;53.018;11.560;2023-05-16T01:55:28;10.05;;;5.55;;
13457;SDS011;6801;53.018;11.560;2023-05-16T01:58:04;9.07;;;5.28;;
13457;SDS011;6801;53.018;11.560;2023-05-16T02:03:00;10.32;;;6.05;;
13457;SDS011;6801;53.018;11.560;2023-05-16T02:05:27;7.78;;;5.32;;
13457;SDS011;6801;53.018;11.560;2023-05-16T02:07:54;6.10;;;4.97;;
13457;SDS011;6801;53.018;11.560;2023-05-16T02:10:21;6.90;;;5.80;;
13457;SDS011;6801;53.018;11.560;2023-05-16T02:12:49;6.82;;;4.72;;
13457;SDS011;6801;53.018;11.560;2023-05-16T02:15:18;6.22;;;4.90;;
13457;SDS011;6801;53.018;11.560;2023-05-16T02:17:45;6.45;;;5.00;;
13457;SDS011;6801;53.018;11.560;2023-05-16T02:20:14;7.15;;;4.38;;
13457;SDS011;6801;53.018;11.560;2023-05-16T02:22:41;5.53;;;4.03;;
13457;SDS011;6801;53.018;11.560;2023-05-16T02:25:08;5.40;;;3.97;;
13457;SDS011;6801;53.018;11.560;2023-05-16T02:27:35;5.45;;;3.85;;
13457;SDS011;6801;53.018;11.560;2023-05-16T02:30:02;6.00;;;3.90;;
13457;SDS011;6801;53.018;11.560;2023-05-16T02:32:32;6.95;;;4.47;;
13457;SDS011;6801;53.018;11.560;2023-05-16T02:34:58;6.35;;;3.63;;
13457;SDS011;6801;53.018;11.560;2023-05-16T02:37:25;7.22;;;4.53;;
13457;SDS011;6801;53.018;11.560;2023-05-16T02:39:52;6.22;;;4.18;;
13457;SDS011;6801;53.018;11.560;2023-05-16T02:42:19;8.95;;;4.22;;
13457;SDS011;6801;53.018;11.560;2023-05-16T02:44:46;7.90;;;3.85;;
13457;SDS011;6801;53.018;11.560;2023-05-16T02:47:13;5.90;;;3.85;;
13457;SDS011;6801;53.018;11.560;2023-05-16T02:49:43;10.90;;;4.85;;
13457;SDS011;6801;53.018;11.560;2023-05-16T02:52:10;6.82;;;4.63;;
13457;SDS011;6801;53.018;11.560;2023-05-16T02:54:37;7.13;;;4.75;;
13457;SDS011;6801;53.018;11.560;2023-05-16T02:57:04;5.28;;;3.88;;
13457;SDS011;6801;53.018;11.560;2023-05-16T02:59:31;3.92;;;2.53;;
13457;SDS011;6801;53.018;11.560;2023-05-16T03:01:58;4.55;;;2.60;;
13457;SDS011;6801;53.018;11.560;2023-05-16T03:04:25;3.88;;;3.10;;
13457;SDS011;6801;53.018;11.560;2023-05-16T03:06:54;6.22;;;3.60;;
13457;SDS011;6801;53.018;11.560;2023-05-16T03:09:21;2.70;;;2.08;;
13457;SDS011;6801;53.018;11.560;2023-05-16T03:11:47;4.70;;;2.20;;
13457;SDS011;6801;53.018;11.560;2023-05-16T03:14:17;4.82;;;2.40;;
13457;SDS011;6801;53.018;11.560;2023-05-16T03:16:45;6.00;;;2.42;;
13457;SDS011;6801;53.018;11.560;2023-05-16T03:19:12;3.88;;;2.13;;
13457;SDS011;6801;53.018;11.560;2023-05-16T03:21:39;3.40;;;2.03;;
13457;SDS011;6801;53.018;11.560;2023-05-16T03:24:07;3.65;;;2.05;;
13457;SDS011;6801;53.018;11.560;2023-05-16T03:26:34;2.63;;;2.08;;
13457;SDS011;6801;53.018;11.560;2023-05-16T03:29:01;3.85;;;2.00;;
13457;SDS011;6801;53.018;11.560;2023-05-16T03:31:28;3.47;;;2.30;;
13457;SDS011;6801;53.018;11.560;2023-05-16T03:33:56;3.67;;;2.00;;
13457;SDS011;6801;53.018;11.560;2023-05-16T03:36:23;1.92;;;1.20;;
13457;SDS011;6801;53.018;11.560;2023-05-16T03:38:50;2.47;;;1.77;;
13457;SDS011;6801;53.018;11.560;2023-05-16T03:41:20;4.00;;;1.75;;
13457;SDS011;6801;53.018;11.560;2023-05-16T03:43:47;1.80;;;1.50;;
13457;SDS011;6801;53.018;11.560;2023-05-16T03:46:14;3.78;;;1.00;;
13457;SDS011;6801;53.018;11.560;2023-05-16T03:48:41;2.20;;;1.30;;
13457;SDS011;6801;53.018;11.560;2023-05-16T03:51:07;4.00;;;1.73;;
13457;SDS011;6801;53.018;11.560;2023-05-16T03:53:35;4.07;;;1.45;;
13457;SDS011;6801;53.018;11.560;2023-05-16T03:56:03;5.15;;;1.50;;
13457;SDS011;6801;53.018;11.560;2023-05-16T03:58:31;2.45;;;1.52;;
13457;SDS011;6801;53.018;11.560;2023-05-16T04:00:58;4.10;;;1.40;;
13457;SDS011;6801;53.018;11.560;2023-05-16T04:03:25;5.38;;;1.42;;
13457;SDS011;6801;53.018;11.560;2023-05-16T04:05:54;2.38;;;0.75;;
13457;SDS011;6801;53.018;11.560;2023-05-16T04:08:21;4.68;;;1.88;;
13457;SDS011;6801;53.018;11.560;2023-05-16T04:10:48;3.63;;;1.38;;
13457;SDS011;6801;53.018;11.560;2023-05-16T04:13:15;2.03;;;0.73;;
13457;SDS011;6801;53.018;11.560;2023-05-16T04:15:43;1.85;;;1.17;;
13457;SDS011;6801;53.018;11.560;2023-05-16T04:18:11;3.17;;;1.17;;
13457;SDS011;6801;53.018;11.560;2023-05-16T04:20:38;3.47;;;1.30;;
13457;SDS011;6801;53.018;11.560;2023-05-16T04:23:06;2.42;;;0.90;;
13457;SDS011;6801;53.018;11.560;2023-05-16T04:25:35;1.65;;;1.08;;
13457;SDS011;6801;53.018;11.560;2023-05-16T04:28:02;1.20;;;0.88;;
13457;SDS011;6801;53.018;11.560;2023-05-16T04:30:30;3.83;;;1.58;;
13457;SDS011;6801;53.018;11.560;2023-05-16T04:32:58;1.83;;;1.10;;
13457;SDS011;6801;53.018;11.560;2023-05-16T04:35:26;3.03;;;1.20;;
13457;SDS011;6801;53.018;11.560;2023-05-16T04:37:53;5.93;;;1.52;;
13457;SDS011;6801;53.018;11.560;2023-05-16T04:40:20;5.53;;;2.03;;
13457;SDS011;6801;53.018;11.560;2023-05-16T04:42:48;3.90;;;1.42;;
13457;SDS011;6801;53.018;11.560;2023-05-16T04:45:15;1.98;;;1.00;;
13457;SDS011;6801;53.018;11.560;2023-05-16T04:47:42;2.80;;;1.05;;
13457;SDS011;6801;53.018;11.560;2023-05-16T04:50:10;5.03;;;1.30;;
13457;SDS011;6801;53.018;11.560;2023-05-16T04:52:37;3.70;;;1.10;;
13457;SDS011;6801;53.018;11.560;2023-05-16T04:55:05;2.58;;;1.10;;
13457;SDS011;6801;53.018;11.560;2023-05-16T04:57:32;3.10;;;1.25;;
13457;SDS011;6801;53.018;11.560;2023-05-16T04:59:59;3.08;;;1.42;;
13457;SDS011;6801;53.018;11.560;2023-05-16T05:02:26;1.55;;;0.80;;
13457;SDS011;6801;53.018;11.560;2023-05-16T05:04:53;2.42;;;1.17;;
13457;SDS011;6801;53.018;11.560;2023-05-16T05:07:21;3.60;;;1.00;;
13457;SDS011;6801;53.018;11.560;2023-05-16T05:09:52;2.00;;;0.95;;
13457;SDS011;6801;53.018;11.560;2023-05-16T05:12:20;3.25;;;0.85;;
13457;SDS011;6801;53.018;11.560;2023-05-16T05:14:47;2.97;;;1.85;;
13457;SDS011;6801;53.018;11.560;2023-05-16T05:17:14;3.47;;;1.05;;
13457;SDS011;6801;53.018;11.560;2023-05-16T05:19:41;2.25;;;0.82;;
13457;SDS011;6801;53.018;11.560;2023-05-16T05:22:08;5.38;;;2.80;;
13457;SDS011;6801;53.018;11.560;2023-05-16T05:24:36;3.50;;;2.08;;
13457;SDS011;6801;53.018;11.560;2023-05-16T05:27:03;1.33;;;0.88;;
13457;SDS011;6801;53.018;11.560;2023-05-16T05:29:30;3.72;;;1.08;;
13457;SDS011;6801;53.018;11.560;2023-05-16T05:31:57;3.15;;;1.00;;
13457;SDS011;6801;53.018;11.560;2023-05-16T05:34:24;4.20;;;1.17;;
13457;SDS011;6801;53.018;11.560;2023-05-16T05:36:51;3.88;;;1.25;;
13457;SDS011;6801;53.018;11.560;2023-05-16T05:39:18;3.88;;;1.23;;
13457;SDS011;6801;53.018;11.560;2023-05-16T05:41:46;3.55;;;1.30;;
13457;SDS011;6801;53.018;11.560;2023-05-16T05:44:13;4.38;;;1.23;;
13457;SDS011;6801;53.018;11.560;2023-05-16T05:46:40;2.63;;;1.02;;
13457;SDS011;6801;53.018;11.560;2023-05-16T05:49:07;3.00;;;1.00;;
13457;SDS011;6801;53.018;11.560;2023-05-16T05:51:34;6.78;;;1.38;;
13457;SDS011;6801;53.018;11.560;2023-05-16T05:54:02;2.22;;;0.80;;
13457;SDS011;6801;53.018;11.560;2023-05-16T05:56:29;5.18;;;1.30;;
13457;SDS011;6801;53.018;11.560;2023-05-16T05:58:57;5.55;;;1.10;;
13457;SDS011;6801;53.018;11.560;2023-05-16T06:01:25;4.07;;;1.10;;
13457;SDS011;6801;53.018;11.560;2023-05-16T06:03:52;4.65;;;1.25;;
13457;SDS011;6801;53.018;11.560;2023-05-16T06:06:19;8.30;;;1.30;;
13457;SDS011;6801;53.018;11.560;2023-05-16T06:08:46;1.88;;;0.90;;
13457;SDS011;6801;53.018;11.560;2023-05-16T06:11:13;7.07;;;1.60;;
13457;SDS011;6801;53.018;11.560;2023-05-16T06:13:40;4.55;;;1.38;;
13457;SDS011;6801;53.018;11.560;2023-05-16T06:16:08;3.83;;;1.02;;
13457;SDS011;6801;53.018;11.560;2023-05-16T06:18:35;5.15;;;1.00;;
13457;SDS011;6801;53.018;11.560;2023-05-16T06:21:02;4.25;;;0.95;;
13457;SDS011;6801;53.018;11.560;2023-05-16T06:23:29;5.75;;;1.25;;
13457;SDS011;6801;53.018;11.560;2023-05-16T06:25:56;2.10;;;0.70;;
13457;SDS011;6801;53.018;11.560;2023-05-16T06:28:23;4.05;;;1.13;;
13457;SDS011;6801;53.018;11.560;2023-05-16T06:30:50;8.60;;;1.80;;
13457;SDS011;6801;53.018;11.560;2023-05-16T06:33:19;4.32;;;1.20;;
13457;SDS011;6801;53.018;11.560;2023-05-16T06:35:46;7.28;;;1.30;;
13457;SDS011;6801;53.018;11.560;2023-05-16T06:38:13;9.73;;;1.73;;
13457;SDS011;6801;53.018;11.560;2023-05-16T06:40:40;5.10;;;1.05;;
13457;SDS011;6801;53.018;11.560;2023-05-16T06:43:07;6.38;;;0.98;;
13457;SDS011;6801;53.018;11.560;2023-05-16T06:45:34;7.88;;;1.13;;
13457;SDS011;6801;53.018;11.560;2023-05-16T06:48:01;10.60;;;1.60;;
13457;SDS011;6801;53.018;11.560;2023-05-16T06:50:30;4.65;;;1.30;;
13457;SDS011;6801;53.018;11.560;2023-05-16T06:52:57;8.52;;;1.38;;
13457;SDS011;6801;53.018;11.560;2023-05-16T06:55:24;4.63;;;1.13;;
13457;SDS011;6801;53.018;11.560;2023-05-16T06:57:51;10.18;;;1.33;;
13457;SDS011;6801;53.018;11.560;2023-05-16T07:00:18;16.10;;;1.98;;
13457;SDS011;6801;53.018;11.560;2023-05-16T07:02:46;8.18;;;1.52;;
13457;SDS011;6801;53.018;11.560;2023-05-16T07:05:13;6.22;;;0.90;;
13457;SDS011;6801;53.018;11.560;2023-05-16T07:07:41;6.93;;;1.00;;
13457;SDS011;6801;53.018;11.560;2023-05-16T07:10:08;8.75;;;1.17;;
13457;SDS011;6801;53.018;11.560;2023-05-16T07:12:36;2.10;;;0.88;;
13457;SDS011;6801;53.018;11.560;2023-05-16T07:15:06;5.38;;;1.15;;
13457;SDS011;6801;53.018;11.560;2023-05-16T07:17:35;8.13;;;1.42;;
13457;SDS011;6801;53.018;11.560;2023-05-16T07:20:02;10.27;;;1.17;;
13457;SDS011;6801;53.018;11.560;2023-05-16T07:22:30;5.80;;;1.30;;
13457;SDS011;6801;53.018;11.560;2023-05-16T07:24:58;6.25;;;1.08;;
13457;SDS011;6801;53.018;11.560;2023-05-16T07:27:25;8.55;;;1.65;;
13457;SDS011;6801;53.018;11.560;2023-05-16T07:29:52;7.70;;;1.52;;
13457;SDS011;6801;53.018;11.560;2023-05-16T07:32:19;6.35;;;1.40;;
13457;SDS011;6801;53.018;11.560;2023-05-16T07:34:46;7.78;;;1.25;;
13457;SDS011;6801;53.018;11.560;2023-05-16T07:37:13;3.85;;;1.00;;
13457;SDS011;6801;53.018;11.560;2023-05-16T07:39:40;7.47;;;1.17;;
13457;SDS011;6801;53.018;11.560;2023-05-16T07:42:08;4.97;;;1.30;;
13457;SDS011;6801;53.018;11.560;2023-05-16T07:44:36;12.65;;;1.02;;
13457;SDS011;6801;53.018;11.560;2023-05-16T07:47:03;4.88;;;0.60;;
13457;SDS011;6801;53.018;11.560;2023-05-16T07:49:30;8.88;;;1.17;;
13457;SDS011;6801;53.018;11.560;2023-05-16T07:51:57;6.53;;;1.10;;
13457;SDS011;6801;53.018;11.560;2023-05-16T07:54:24;7.47;;;1.02;;
13457;SDS011;6801;53.018;11.560;2023-05-16T07:56:51;6.43;;;1.00;;
13457;SDS011;6801;53.018;11.560;2023-05-16T07:59:20;8.15;;;0.90;;
13457;SDS011;6801;53.018;11.560;2023-05-16T08:01:47;3.63;;;0.70;;
13457;SDS011;6801;53.018;11.560;2023-05-16T08:04:14;7.53;;;1.00;;
13457;SDS011;6801;53.018;11.560;2023-05-16T08:06:40;6.88;;;0.63;;
13457;SDS011;6801;53.018;11.560;2023-05-16T08:09:07;5.70;;;1.48;;
13457;SDS011;6801;53.018;11.560;2023-05-16T08:11:35;6.78;;;0.88;;
13457;SDS011;6801;53.018;11.560;2023-05-16T08:14:04;9.30;;;1.33;;
13457;SDS011;6801;53.018;11.560;2023-05-16T08:16:32;5.93;;;1.08;;
13457;SDS011;6801;53.018;11.560;2023-05-16T08:18:59;6.07;;;0.90;;
13457;SDS011;6801;53.018;11.560;2023-05-16T08:21:26;4.50;;;0.73;;
13457;SDS011;6801;53.018;11.560;2023-05-16T08:23:53;5.18;;;0.90;;
13457;SDS011;6801;53.018;11.560;2023-05-16T08:26:20;6.10;;;1.27;;
13457;SDS011;6801;53.018;11.560;2023-05-16T08:28:47;7.68;;;1.10;;
13457;SDS011;6801;53.018;11.560;2023-05-16T08:31:14;7.40;;;1.73;;
13457;SDS011;6801;53.018;11.560;2023-05-16T08:33:42;6.72;;;1.15;;
13457;SDS011;6801;53.018;11.560;2023-05-16T08:36:09;4.90;;;0.80;;
13457;SDS011;6801;53.018;11.560;2023-05-16T08:38:36;6.40;;;1.10;;
13457;SDS011;6801;53.018;11.560;2023-05-16T08:41:03;3.90;;;0.90;;
13457;SDS011;6801;53.018;11.560;2023-05-16T08:43:31;6.47;;;1.05;;
13457;SDS011;6801;53.018;11.560;2023-05-16T08:45:59;8.63;;;0.98;;
13457;SDS011;6801;53.018;11.560;2023-05-16T08:48:26;8.52;;;1.23;;
13457;SDS011;6801;53.018;11.560;2023-05-16T08:50:55;8.65;;;1.10;;
13457;SDS011;6801;53.018;11.560;2023-05-16T08:53:30;7.47;;;1.35;;
13457;SDS011;6801;53.018;11.560;2023-05-16T08:56:02;7.20;;;0.93;;
13457;SDS011;6801;53.018;11.560;2023-05-16T08:58:29;5.05;;;0.70;;
13457;SDS011;6801;53.018;11.560;2023-05-16T09:00:56;7.00;;;1.27;;
13457;SDS011;6801;53.018;11.560;2023-05-16T09:03:23;10.13;;;1.23;;
13457;SDS011;6801;53.018;11.560;2023-05-16T09:05:52;5.90;;;0.98;;
13457;SDS011;6801;53.018;11.560;2023-05-16T09:08:21;5.85;;;0.95;;
13457;SDS011;6801;53.018;11.560;2023-05-16T09:10:49;7.28;;;0.95;;
13457;SDS011;6801;53.018;11.560;2023-05-16T09:13:16;10.55;;;0.93;;
13457;SDS011;6801;53.018;11.560;2023-05-16T09:15:43;10.18;;;1.13;;
13457;SDS011;6801;53.018;11.560;2023-05-16T09:18:10;6.43;;;1.33;;
13457;SDS011;6801;53.018;11.560;2023-05-16T09:20:41;12.70;;;1.50;;
13457;SDS011;6801;53.018;11.560;2023-05-16T09:23:12;4.72;;;0.80;;
13457;SDS011;6801;53.018;11.560;2023-05-16T09:25:39;7.28;;;1.58;;
13457;SDS011;6801;53.018;11.560;2023-05-16T09:28:09;6.13;;;1.00;;
13457;SDS011;6801;53.018;11.560;2023-05-16T09:30:37;3.88;;;0.80;;
13457;SDS011;6801;53.018;11.560;2023-05-16T09:33:06;6.50;;;1.00;;
13457;SDS011;6801;53.018;11.560;2023-05-16T09:35:33;5.60;;;1.83;;
13457;SDS011;6801;53.018;11.560;2023-05-16T09:38:00;4.68;;;0.80;;
13457;SDS011;6801;53.018;11.560;2023-05-16T09:40:28;4.70;;;0.93;;
13457;SDS011;6801;53.018;11.560;2023-05-16T09:43:00;5.93;;;0.95;;
13457;SDS011;6801;53.018;11.560;2023-05-16T09:45:29;8.80;;;0.88;;
13457;SDS011;6801;53.018;11.560;2023-05-16T09:47:59;8.50;;;1.13;;
13457;SDS011;6801;53.018;11.560;2023-05-16T09:50:31;5.47;;;0.80;;
13457;SDS011;6801;53.018;11.560;2023-05-16T09:52:58;5.07;;;0.90;;
13457;SDS011;6801;53.018;11.560;2023-05-16T09:55:26;7.18;;;1.10;;
13457;SDS011;6801;53.018;11.560;2023-05-16T09:57:54;3.83;;;0.65;;
13457;SDS011;6801;53.018;11.560;2023-05-16T10:00:22;5.82;;;0.80;;
13457;SDS011;6801;53.018;11.560;2023-05-16T10:02:56;3.95;;;0.63;;
13457;SDS011;6801;53.018;11.560;2023-05-16T10:05:24;5.13;;;0.60;;
13457;SDS011;6801;53.018;11.560;2023-05-16T10:07:52;7.70;;;1.05;;
13457;SDS011;6801;53.018;11.560;2023-05-16T10:10:21;3.35;;;0.57;;
13457;SDS011;6801;53.018;11.560;2023-05-16T10:12:49;6.03;;;0.80;;
13457;SDS011;6801;53.018;11.560;2023-05-16T10:15:18;3.92;;;0.85;;
13457;SDS011;6801;53.018;11.560;2023-05-16T10:17:48;4.70;;;0.70;;
13457;SDS011;6801;53.018;11.560;2023-05-16T10:20:17;3.22;;;0.70;;
13457;SDS011;6801;53.018;11.560;2023-05-16T10:22:47;5.65;;;0.90;;
13457;SDS011;6801;53.018;11.560;2023-05-16T10:25:19;6.07;;;0.68;;
13457;SDS011;6801;53.018;11.560;2023-05-16T10:27:51;2.38;;;0.55;;
13457;SDS011;6801;53.018;11.560;2023-05-16T10:30:21;2.40;;;0.40;;
13457;SDS011;6801;53.018;11.560;2023-05-16T10:32:48;6.47;;;0.50;;
13457;SDS011;6801;53.018;11.560;2023-05-16T10:35:16;3.67;;;0.68;;
13457;SDS011;6801;53.018;11.560;2023-05-16T10:37:44;6.63;;;0.73;;
13457;SDS011;6801;53.018;11.560;2023-05-16T10:40:12;2.42;;;0.20;;
13457;SDS011;6801;53.018;11.560;2023-05-16T10:42:42;4.82;;;0.70;;
13457;SDS011;6801;53.018;11.560;2023-05-16T10:47:52;5.93;;;0.63;;
13457;SDS011;6801;53.018;11.560;2023-05-16T10:53:12;6.45;;;1.00;;
13457;SDS011;6801;53.018;11.560;2023-05-16T10:55:45;6.00;;;0.90;;
13457;SDS011;6801;53.018;11.560;2023-05-16T10:58:22;5.85;;;0.70;;
13457;SDS011;6801;53.018;11.560;2023-05-16T11:03:59;5.20;;;0.68;;
13457;SDS011;6801;53.018;11.560;2023-05-16T11:06:28;2.85;;;0.82;;
13457;SDS011;6801;53.018;11.560;2023-05-16T11:08:57;1.80;;;0.50;;
13457;SDS011;6801;53.018;11.560;2023-05-16T11:11:39;4.63;;;0.80;;
13457;SDS011;6801;53.018;11.560;2023-05-16T11:14:08;5.20;;;0.63;;
13457;SDS011;6801;53.018;11.560;2023-05-16T11:16:44;1.70;;;0.50;;
13457;SDS011;6801;53.018;11.560;2023-05-16T11:19:18;1.60;;;0.30;;
13457;SDS011;6801;53.018;11.560;2023-05-16T11:24:53;4.50;;;0.52;;
13457;SDS011;6801;53.018;11.560;2023-05-16T11:27:23;3.30;;;0.55;;
13457;SDS011;6801;53.018;11.560;2023-05-16T11:29:52;4.97;;;0.70;;
13457;SDS011;6801;53.018;11.560;2023-05-16T11:32:22;2.72;;;0.40;;
13457;SDS011;6801;53.018;11.560;2023-05-16T11:34:49;4.43;;;1.10;;
13457;SDS011;6801;53.018;11.560;2023-05-16T11:37:17;2.25;;;0.45;;
13457;SDS011;6801;53.018;11.560;2023-05-16T11:39:45;3.95;;;0.50;;
13457;SDS011;6801;53.018;11.560;2023-05-16T11:42:13;4.53;;;0.52;;
13457;SDS011;6801;53.018;11.560;2023-05-16T11:44:40;5.97;;;0.60;;
13457;SDS011;6801;53.018;11.560;2023-05-16T11:47:07;5.35;;;0.93;;
13457;SDS011;6801;53.018;11.560;2023-05-16T11:49:35;3.35;;;0.60;;
13457;SDS011;6801;53.018;11.560;2023-05-16T11:52:03;3.67;;;0.50;;
13457;SDS011;6801;53.018;11.560;2023-05-16T11:54:30;2.80;;;0.43;;
13457;SDS011;6801;53.018;11.560;2023-05-16T11:56:59;1.35;;;0.40;;
13457;SDS011;6801;53.018;11.560;2023-05-16T11:59:26;3.40;;;0.40;;
13457;SDS011;6801;53.018;11.560;2023-05-16T12:01:53;3.35;;;0.52;;
13457;SDS011;6801;53.018;11.560;2023-05-16T12:04:21;3.40;;;0.25;;
13457;SDS011;6801;53.018;11.560;2023-05-16T12:06:59;1.88;;;0.30;;
13457;SDS011;6801;53.018;11.560;2023-05-16T12:09:27;3.20;;;0.68;;
13457;SDS011;6801;53.018;11.560;2023-05-16T12:11:54;3.78;;;0.60;;
13457;SDS011;6801;53.018;11.560;2023-05-16T12:14:21;5.03;;;0.68;;
13457;SDS011;6801;53.018;11.560;2023-05-16T12:16:50;5.50;;;0.60;;
13457;SDS011;6801;53.018;11.560;2023-05-16T12:19:18;4.38;;;0.77;;
13457;SDS011;6801;53.018;11.560;2023-05-16T12:21:46;5.43;;;0.60;;
13457;SDS011;6801;53.018;11.560;2023-05-16T12:24:14;3.65;;;0.52;;
13457;SDS011;6801;53.018;11.560;2023-05-16T12:26:42;5.50;;;0.60;;
13457;SDS011;6801;53.018;11.560;2023-05-16T12:29:09;3.20;;;1.13;;
13457;SDS011;6801;53.018;11.560;2023-05-16T12:31:37;4.28;;;0.85;;
13457;SDS011;6801;53.018;11.560;2023-05-16T12:34:13;1.48;;;0.40;;
13457;SDS011;6801;53.018;11.560;2023-05-16T12:36:41;2.25;;;0.45;;
13457;SDS011;6801;53.018;11.560;2023-05-16T12:39:10;7.20;;;0.93;;
13457;SDS011;6801;53.018;11.560;2023-05-16T12:41:41;5.93;;;0.63;;
13457;SDS011;6801;53.018;11.560;2023-05-16T12:44:11;2.67;;;0.38;;
13457;SDS011;6801;53.018;11.560;2023-05-16T12:46:42;7.40;;;0.90;;
13457;SDS011;6801;53.018;11.560;2023-05-16T12:49:10;4.70;;;0.80;;
13457;SDS011;6801;53.018;11.560;2023-05-16T12:51:38;2.17;;;0.60;;
13457;SDS011;6801;53.018;11.560;2023-05-16T12:54:08;5.72;;;0.90;;
13457;SDS011;6801;53.018;11.560;2023-05-16T12:56:37;5.22;;;0.80;;
13457;SDS011;6801;53.018;11.560;2023-05-16T12:59:05;3.67;;;0.30;;
13457;SDS011;6801;53.018;11.560;2023-05-16T13:01:32;4.22;;;0.50;;
13457;SDS011;6801;53.018;11.560;2023-05-16T13:04:00;7.72;;;0.40;;
13457;SDS011;6801;53.018;11.560;2023-05-16T13:06:28;2.65;;;0.80;;
13457;SDS011;6801;53.018;11.560;2023-05-16T13:08:55;3.65;;;0.45;;
13457;SDS011;6801;53.018;11.560;2023-05-16T13:11:22;1.65;;;0.35;;
13457;SDS011;6801;53.018;11.560;2023-05-16T13:13:50;4.28;;;0.52;;
13457;SDS011;6801;53.018;11.560;2023-05-16T13:16:19;3.50;;;0.70;;
13457;SDS011;6801;53.018;11.560;2023-05-16T13:18:46;6.03;;;1.00;;
13457;SDS011;6801;53.018;11.560;2023-05-16T13:21:13;4.55;;;0.70;;
13457;SDS011;6801;53.018;11.560;2023-05-16T13:23:40;4.13;;;0.77;;
13457;SDS011;6801;53.018;11.560;2023-05-16T13:26:07;4.07;;;0.95;;
13457;SDS011;6801;53.018;11.560;2023-05-16T13:28:34;3.53;;;0.52;;
13457;SDS011;6801;53.018;11.560;2023-05-16T13:31:01;3.65;;;0.70;;
13457;SDS011;6801;53.018;11.560;2023-05-16T13:33:30;5.28;;;0.80;;
13457;SDS011;6801;53.018;11.560;2023-05-16T13:35:57;2.95;;;0.68;;
13457;SDS011;6801;53.018;11.560;2023-05-16T13:38:25;4.15;;;0.70;;
13457;SDS011;6801;53.018;11.560;2023-05-16T13:40:52;4.78;;;0.70;;
13457;SDS011;6801;53.018;11.560;2023-05-16T13:43:19;6.25;;;0.90;;
13457;SDS011;6801;53.018;11.560;2023-05-16T13:45:45;4.97;;;0.95;;
13457;SDS011;6801;53.018;11.560;2023-05-16T13:48:12;8.20;;;1.05;;
13457;SDS011;6801;53.018;11.560;2023-05-16T13:50:41;4.05;;;0.80;;
13457;SDS011;6801;53.018;11.560;2023-05-16T13:53:08;6.22;;;0.70;;
13457;SDS011;6801;53.018;11.560;2023-05-16T13:55:35;6.55;;;1.05;;
13457;SDS011;6801;53.018;11.560;2023-05-16T13:58:02;10.52;;;0.75;;
13457;SDS011;6801;53.018;11.560;2023-05-16T14:00:29;2.33;;;0.65;;
13457;SDS011;6801;53.018;11.560;2023-05-16T14:02:56;4.35;;;0.68;;
13457;SDS011;6801;53.018;11.560;2023-05-16T14:05:23;3.42;;;0.60;;
13457;SDS011;6801;53.018;11.560;2023-05-16T14:07:51;6.53;;;1.38;;
13457;SDS011;6801;53.018;11.560;2023-05-16T14:10:18;4.82;;;0.90;;
13457;SDS011;6801;53.018;11.560;2023-05-16T14:12:46;5.93;;;0.73;;
13457;SDS011;6801;53.018;11.560;2023-05-16T14:15:13;2.72;;;0.63;;
13457;SDS011;6801;53.018;11.560;2023-05-16T14:17:40;2.15;;;0.60;;
13457;SDS011;6801;53.018;11.560;2023-05-16T14:20:07;6.72;;;1.02;;
13457;SDS011;6801;53.018;11.560;2023-05-16T14:22:35;3.80;;;0.63;;
13457;SDS011;6801;53.018;11.560;2023-05-16T14:25:04;3.95;;;0.77;;
13457;SDS011;6801;53.018;11.560;2023-05-16T14:27:32;5.37;;;0.90;;
13457;SDS011;6801;53.018;11.560;2023-05-16T14:29:59;2.88;;;0.57;;
13457;SDS011;6801;53.018;11.560;2023-05-16T14:32:26;6.57;;;0.70;;
13457;SDS011;6801;53.018;11.560;2023-05-16T14:34:53;4.45;;;0.60;;
13457;SDS011;6801;53.018;11.560;2023-05-16T14:37:20;6.63;;;0.77;;
13457;SDS011;6801;53.018;11.560;2023-05-16T14:39:47;1.77;;;0.50;;
13457;SDS011;6801;53.018;11.560;2023-05-16T14:42:16;5.43;;;0.85;;
13457;SDS011;6801;53.018;11.560;2023-05-16T14:44:43;3.13;;;0.70;;
13457;SDS011;6801;53.018;11.560;2023-05-16T14:47:10;5.40;;;0.98;;
13457;SDS011;6801;53.018;11.560;2023-05-16T14:49:37;4.32;;;0.88;;
13457;SDS011;6801;53.018;11.560;2023-05-16T14:52:05;3.78;;;0.63;;
13457;SDS011;6801;53.018;11.560;2023-05-16T14:54:32;4.40;;;0.70;;
13457;SDS011;6801;53.018;11.560;2023-05-16T14:57:01;8.88;;;0.70;;
13457;SDS011;6801;53.018;11.560;2023-05-16T14:59:30;0.68;;;0.22;;
13457;SDS011;6801;53.018;11.560;2023-05-16T15:01:57;1.45;;;0.52;;
13457;SDS011;6801;53.018;11.560;2023-05-16T15:04:25;3.85;;;0.73;;
13457;SDS011;6801;53.018;11.560;2023-05-16T15:06:52;2.55;;;0.50;;
13457;SDS011;6801;53.018;11.560;2023-05-16T15:09:19;3.20;;;0.47;;